Terminal Aerodrome Forecast
Issued by NWS Brownsville, TX

Home | Current Version | Previous Version | Text Only | Print | Product List | Glossary On
Versions: 1 2 3 4 5 6 7 8 9 10 11 12 13 14 15 16 17 18 19 20
819
FTUS44 KBRO 022330
TAFMFE
TAF
KMFE 022330Z 0300/0324 35012G20KT P6SM OVC045
     FM030900 34008KT P6SM OVC030
     FM031800 01010KT P6SM BKN035=

USA.gov is the U.S. government's official web portal to all federal, state and local government web resources and services.